Time;durP1;ratioP1;P1;durP2;ratioP2;P2;SDS_P1;SDS_P2;PMS_P1;PMS_P2;Temp;Humidity;BMP_temperature;BMP_pressure;BME280_temperature;BME280_humidity;BME280_pressure;Samples;Min_cycle;Max_cycle;Signal;HPM_P1;HPM_P2
2021/05/18 00:00:33;;;;;;;19.50;6.60;;;;;;;20.91;36.22;99297.03;4966691;28;20133;-70
2021/05/18 00:02:59;;;;;;;24.67;5.30;;;;;;;20.78;36.17;99284.47;4967670;28;20050;-74
2021/05/18 00:05:27;;;;;;;28.75;5.70;;;;;;;20.83;36.36;99304.72;4966930;28;20072;-74
2021/05/18 00:07:57;;;;;;;20.63;5.65;;;;;;;20.75;36.38;99290.06;4981624;28;20049;-73
2021/05/18 00:13:12;;;;;;;19.48;5.32;;;;;;;20.62;36.62;99276.56;4984058;28;20137;-69
2021/05/18 00:15:38;;;;;;;33.28;5.90;;;;;;;20.70;36.81;99293.09;4967783;28;20457;-71
2021/05/18 00:18:04;;;;;;;24.23;5.18;;;;;;;20.67;36.65;99298.66;4976363;28;20134;-70
2021/05/18 00:20:30;;;;;;;26.73;5.60;;;;;;;20.62;36.71;99295.44;4974685;28;20125;-73
2021/05/18 00:22:56;;;;;;;26.13;5.82;;;;;;;20.63;36.76;99301.66;4972363;28;20118;-72
2021/05/18 00:25:22;;;;;;;28.65;5.57;;;;;;;20.59;36.85;99292.06;4972831;28;20038;-72
2021/05/18 00:27:48;;;;;;;29.27;5.97;;;;;;;20.55;37.17;99295.94;4984638;28;20050;-72
2021/05/18 00:30:15;;;;;;;20.33;4.70;;;;;;;20.47;37.31;99279.44;4968468;28;20171;-72
2021/05/18 00:32:41;;;;;;;31.08;5.78;;;;;;;20.52;37.17;99288.06;4968008;28;20050;-69
2021/05/18 00:35:10;;;;;;;23.13;5.40;;;;;;;20.49;37.15;99291.81;4967240;28;20507;-70
2021/05/18 00:37:39;;;;;;;24.65;5.57;;;;;;;20.46;37.04;99280.41;4980257;28;20057;-66
2021/05/18 00:40:08;;;;;;;21.58;5.68;;;;;;;20.37;37.20;99264.88;4968458;28;20868;-70
2021/05/18 00:42:45;;;;;;;27.08;5.85;;;;;;;20.40;37.24;99273.59;4982174;28;20050;-68
2021/05/18 00:45:13;;;;;;;21.08;5.38;;;;;;;20.30;37.18;99259.00;4987707;28;20081;-74
2021/05/18 00:47:39;;;;;;;29.42;5.32;;;;;;;20.38;37.26;99278.22;4957040;28;20034;-71
2021/05/18 00:50:06;;;;;;;26.83;5.55;;;;;;;20.36;37.39;99276.59;4980451;28;20112;-71
2021/05/18 00:52:32;;;;;;;19.48;5.13;;;;;;;20.36;37.45;99290.94;4966239;28;20047;-77
2021/05/18 00:55:07;;;;;;;25.58;5.03;;;;;;;20.35;37.30;99291.03;4968955;28;20073;-71
2021/05/18 01:00:19;;;;;;;34.80;5.78;;;;;;;20.27;37.59;99286.19;4946977;28;20110;-71
2021/05/18 01:02:47;;;;;;;31.13;4.97;;;;;;;20.05;37.73;99256.22;4947017;29;20338;-74
2021/05/18 01:06:18;;;;;;;22.73;5.15;;;;;;;20.20;37.53;99278.59;4962497;28;20078;-77
2021/05/18 01:08:07;;;;;;;28.35;5.68;;;;;;;20.19;37.46;99288.50;4948256;28;20047;-74
2021/05/18 01:10:33;;;;;;;21.25;4.90;;;;;;;20.17;37.81;99292.28;4957294;28;20145;-71
2021/05/18 01:12:59;;;;;;;22.40;5.93;;;;;;;20.14;37.78;99295.16;4967212;28;20098;-75
2021/05/18 01:15:26;;;;;;;19.40;5.18;;;;;;;20.15;37.85;99299.56;4963960;28;20373;-71
2021/05/18 01:17:52;;;;;;;24.90;5.40;;;;;;;20.14;37.84;99287.09;4964737;28;20039;-74
2021/05/18 01:20:19;;;;;;;21.75;5.88;;;;;;;20.15;37.78;99286.13;4984211;28;20101;-70
2021/05/18 01:22:46;;;;;;;17.27;4.50;;;;;;;20.10;37.93;99290.94;4951423;28;20069;-75
2021/05/18 01:25:16;;;;;;;22.20;5.20;;;;;;;20.01;37.79;99270.84;4943372;28;20047;-75
2021/05/18 01:27:42;;;;;;;18.70;4.75;;;;;;;20.11;37.82;99285.47;4959125;28;20038;-73
2021/05/18 01:30:10;;;;;;;15.48;5.40;;;;;;;20.08;37.86;99288.31;4948464;28;20508;-75
2021/05/18 01:32:42;;;;;;;16.23;4.68;;;;;;;20.06;37.88;99289.38;4965913;28;20043;-73
2021/05/18 01:35:12;;;;;;;19.45;5.25;;;;;;;20.08;37.94;99293.69;4965546;28;20071;-72
2021/05/18 01:37:40;;;;;;;15.82;5.57;;;;;;;20.05;38.08;99293.06;4964253;28;20106;-71
2021/05/18 01:42:57;;;;;;;20.30;4.90;;;;;;;19.82;38.09;99262.25;4967765;28;20047;-72
2021/05/18 01:45:32;;;;;;;22.98;5.53;;;;;;;20.06;38.02;99292.09;4969366;28;20049;-73
2021/05/18 01:48:03;;;;;;;22.55;5.25;;;;;;;20.06;38.20;99292.09;4969129;28;20039;-74
2021/05/18 01:50:37;;;;;;;20.00;5.32;;;;;;;20.04;38.12;99294.00;4951759;28;20213;-72
2021/05/18 01:53:04;;;;;;;24.20;5.32;;;;;;;20.00;38.18;99298.72;4966807;28;20051;-71
2021/05/18 01:57:59;;;;;;;18.35;5.07;;;;;;;20.03;38.24;99294.97;4968864;28;20089;-73
2021/05/18 02:00:39;;;;;;;18.88;4.97;;;;;;;20.02;38.23;99302.16;4969709;28;20050;-72
2021/05/18 02:03:17;;;;;;;22.95;4.78;;;;;;;19.76;38.46;99259.97;4953747;28;20049;-73
2021/05/18 02:05:44;;;;;;;21.00;5.00;;;;;;;20.03;38.23;99292.28;4967664;28;20042;-72
2021/05/18 02:08:30;;;;;;;24.88;5.30;;;;;;;19.91;38.25;99279.63;4977430;28;20054;-69
2021/05/18 02:10:59;;;;;;;24.33;5.72;;;;;;;19.94;38.33;99284.81;4982751;28;20038;-73
2021/05/18 02:13:26;;;;;;;18.65;5.20;;;;;;;20.04;38.29;99305.63;4938415;28;20418;-76
2021/05/18 02:16:00;;;;;;;17.35;5.50;;;;;;;20.07;38.24;99304.56;4954057;28;20129;-71
2021/05/18 02:26:24;;;;;;;20.85;5.28;;;;;;;19.96;38.41;99289.13;4978235;28;20054;-71
2021/05/18 02:28:56;;;;;;;27.35;5.53;;;;;;;20.09;38.15;99305.34;4968823;28;20053;-69
2021/05/18 02:31:25;;;;;;;24.27;5.90;;;;;;;20.12;38.09;99307.84;4967442;28;20423;-73
2021/05/18 02:33:57;;;;;;;23.98;5.82;;;;;;;20.18;38.26;99307.47;4957870;28;20046;-71
2021/05/18 02:36:27;;;;;;;17.73;5.20;;;;;;;20.21;38.32;99315.34;4966955;28;20635;-71
2021/05/18 02:38:55;;;;;;;17.73;5.68;;;;;;;20.22;38.16;99320.59;4982237;28;20426;-68
2021/05/18 02:41:23;;;;;;;23.42;5.10;;;;;;;20.16;38.10;99295.91;4984128;28;20046;-68
2021/05/18 02:44:00;;;;;;;22.20;5.80;;;;;;;20.28;38.01;99320.19;4969804;28;20086;-70
2021/05/18 02:49:12;;;;;;;27.45;5.00;;;;;;;20.36;37.91;99325.06;4971940;28;20112;-72
2021/05/18 02:51:44;;;;;;;20.77;5.13;;;;;;;20.38;37.93;99320.47;4978401;28;20042;-70
2021/05/18 02:54:13;;;;;;;19.48;5.15;;;;;;;20.42;37.68;99321.97;4970820;28;20046;-68
2021/05/18 02:59:18;;;;;;;20.52;5.40;;;;;;;20.50;37.70;99325.91;4980868;28;20051;-68
2021/05/18 03:01:47;;;;;;;16.38;5.00;;;;;;;20.51;37.70;99322.22;4967449;28;20129;-75
2021/05/18 03:04:14;;;;;;;22.15;5.63;;;;;;;20.21;37.91;99253.41;4966903;28;20518;-75
2021/05/18 03:06:41;;;;;;;34.15;5.82;;;;;;;20.60;37.52;99335.06;4987790;28;20161;-74
2021/05/18 03:09:13;;;;;;;21.98;5.32;;;;;;;20.66;37.56;99326.59;4986836;28;20518;-72
2021/05/18 03:11:41;;;;;;;25.95;5.40;;;;;;;20.60;37.78;99313.53;4963295;28;20560;-69
2021/05/18 03:14:09;;;;;;;27.75;5.30;;;;;;;20.71;37.28;99324.44;4953307;28;20069;-71
2021/05/18 03:16:36;;;;;;;22.60;5.28;;;;;;;20.77;37.18;99334.78;4968289;28;20046;-72
2021/05/18 03:19:03;;;;;;;16.40;5.45;;;;;;;20.82;37.34;99338.06;4969490;28;20138;-73
2021/05/18 03:21:30;;;;;;;28.10;5.20;;;;;;;20.85;37.26;99334.28;4968394;28;20042;-73
2021/05/18 03:23:56;;;;;;;21.67;5.18;;;;;;;20.89;37.21;99328.56;4988334;28;20156;-72
2021/05/18 03:26:22;;;;;;;19.48;5.60;;;;;;;20.94;37.00;99329.16;4985328;28;20056;-71
2021/05/18 03:28:57;;;;;;;18.70;4.95;;;;;;;20.97;36.62;99334.31;4974174;28;20133;-72
2021/05/18 03:36:51;;;;;;;29.85;5.45;;;;;;;21.18;36.58;99343.63;4966857;28;20109;-74
2021/05/18 03:39:17;;;;;;;20.55;5.20;;;;;;;21.23;36.40;99337.91;4967999;28;20450;-70
2021/05/18 03:42:28;;;;;;;26.77;5.40;;;;;;;21.29;36.35;99341.03;4977669;28;20049;-69
2021/05/18 04:03:37;;;;;;;26.25;6.28;;;;;;;21.77;34.19;99315.13;4967901;28;20050;-68
2021/05/18 04:19:17;;;;;;;18.05;5.50;;;;;;;22.19;33.95;99330.03;4975542;28;20050;-68
2021/05/18 04:22:13;;;;;;;20.98;6.22;;;;;;;22.20;34.26;99339.84;4970367;28;20684;-70
2021/05/18 04:38:53;;;;;;;23.95;5.65;;;;;;;22.49;34.58;99342.13;4943049;29;20166;-72
2021/05/18 05:16:10;;;;;;;28.13;5.35;;;;;;;22.94;34.66;99318.84;4917475;29;20233;-72
2021/05/18 05:18:36;;;;;;;23.98;5.50;;;;;;;23.07;34.89;99336.72;4967803;28;20137;-76
2021/05/18 05:21:02;;;;;;;22.65;5.22;;;;;;;23.07;34.17;99341.25;4968048;28;20071;-75
2021/05/18 05:23:28;;;;;;;41.90;5.10;;;;;;;23.10;34.08;99333.75;4964144;28;20043;-75
2021/05/18 05:25:54;;;;;;;24.25;5.50;;;;;;;23.12;34.62;99323.69;4978047;28;20054;-77
2021/05/18 05:28:20;;;;;;;29.05;4.93;;;;;;;23.25;34.09;99329.91;4960775;28;20054;-79
2021/05/18 05:30:46;;;;;;;20.83;4.70;;;;;;;23.30;34.49;99327.69;4983270;28;20057;-79
2021/05/18 05:33:12;;;;;;;23.85;4.88;;;;;;;23.35;34.69;99341.75;4984795;28;20043;-78
2021/05/18 05:35:38;;;;;;;28.05;5.28;;;;;;;23.37;34.23;99320.81;4985437;28;20042;-81
2021/05/18 05:38:06;;;;;;;31.98;5.25;;;;;;;23.43;34.61;99324.88;4970835;28;20065;-75
2021/05/18 05:40:33;;;;;;;27.60;5.07;;;;;;;23.58;33.85;99329.09;4959861;28;20046;-79
2021/05/18 05:42:59;;;;;;;27.67;5.75;;;;;;;23.68;33.92;99335.47;4984146;28;20039;-75
2021/05/18 05:45:25;;;;;;;21.98;4.68;;;;;;;23.75;33.72;99325.88;4973511;28;20046;-74
2021/05/18 05:47:51;;;;;;;23.42;5.07;;;;;;;23.76;33.95;99314.94;4983484;28;20052;-74
2021/05/18 05:50:18;;;;;;;21.88;5.50;;;;;;;23.90;33.87;99325.53;4983888;28;20163;-79
2021/05/18 05:52:44;;;;;;;32.53;5.85;;;;;;;24.01;33.63;99325.50;4967890;28;20046;-76
2021/05/18 05:55:11;;;;;;;31.80;6.85;;;;;;;24.11;33.82;99329.22;4984771;28;20421;-72
2021/05/18 05:57:37;;;;;;;29.38;6.35;;;;;;;24.21;33.60;99322.03;4951752;28;20054;-75
2021/05/18 06:00:09;;;;;;;20.65;5.40;;;;;;;24.25;32.70;99303.69;4971634;28;20125;-74
2021/05/18 06:02:37;;;;;;;29.38;5.03;;;;;;;24.44;33.05;99323.69;4971963;28;20141;-76
2021/05/18 06:05:04;;;;;;;19.02;4.57;;;;;;;24.50;32.75;99323.19;4986253;28;20069;-76
2021/05/18 06:07:30;;;;;;;22.38;5.95;;;;;;;24.63;32.58;99313.06;4988368;28;20512;-75
2021/05/18 06:10:02;;;;;;;26.00;5.40;;;;;;;24.74;32.19;99321.16;4955656;28;20462;-78
2021/05/18 06:12:43;;;;;;;26.83;5.28;;;;;;;24.81;32.07;99324.22;4984195;28;20078;-77
2021/05/18 06:29:43;;;;;;;38.15;5.88;;;;;;;25.15;32.51;99304.91;4971717;28;20509;-73
2021/05/18 06:35:00;;;;;;;26.98;5.78;;;;;;;25.63;29.32;99305.22;4988603;28;20057;-69
2021/05/18 06:42:59;;;;;;;33.05;5.68;;;;;;;25.87;29.72;99316.63;4986544;28;20050;-70
2021/05/18 06:47:54;;;;;;;27.95;5.63;;;;;;;26.08;28.36;99313.84;4969083;28;20105;-69
2021/05/18 06:50:30;;;;;;;26.23;5.20;;;;;;;26.16;29.10;99323.03;4970579;28;20132;-71
2021/05/18 06:52:57;;;;;;;21.77;5.03;;;;;;;26.23;29.11;99323.34;4987165;28;20894;-70
2021/05/18 06:55:27;;;;;;;23.80;4.65;;;;;;;26.23;28.80;99323.34;4966902;28;20380;-71
2021/05/18 06:58:00;;;;;;;31.88;4.70;;;;;;;26.29;28.52;99334.50;4966960;28;20066;-71
2021/05/18 07:00:26;;;;;;;23.90;4.88;;;;;;;26.49;29.34;99336.25;4982135;28;20046;-70
2021/05/18 07:02:53;;;;;;;32.88;5.80;;;;;;;26.69;29.95;99326.31;4964479;28;20154;-70
2021/05/18 07:05:30;;;;;;;23.55;4.82;;;;;;;27.00;29.70;99325.13;4951195;28;20050;-71
2021/05/18 07:08:21;;;;;;;32.20;5.28;;;;;;;27.16;29.02;99315.38;4949204;28;20043;-75
2021/05/18 07:10:49;;;;;;;37.50;5.55;;;;;;;27.58;28.84;99333.13;4966989;28;20117;-74
2021/05/18 07:13:15;;;;;;;29.00;4.80;;;;;;;27.66;28.55;99332.38;4967670;28;20399;-75
2021/05/18 07:15:42;;;;;;;36.53;6.47;;;;;;;27.89;27.37;99329.13;4965719;28;20057;-74
2021/05/18 07:18:09;;;;;;;22.75;4.43;;;;;;;28.09;26.87;99349.00;4974902;28;20080;-71
2021/05/18 07:20:35;;;;;;;31.58;4.97;;;;;;;28.26;26.65;99346.34;4955078;28;20094;-73
2021/05/18 07:23:11;;;;;;;24.83;4.90;;;;;;;28.37;26.78;99342.56;4984969;28;20493;-71
2021/05/18 07:25:38;;;;;;;29.52;4.95;;;;;;;28.90;26.78;99347.09;4973958;28;20110;-70
2021/05/18 07:28:08;;;;;;;20.63;4.35;;;;;;;28.95;26.82;99349.34;4978738;28;20137;-72
2021/05/18 07:30:50;;;;;;;36.53;5.30;;;;;;;29.21;26.54;99353.91;4981390;28;20098;-71
2021/05/18 07:33:17;;;;;;;24.95;6.47;;;;;;;29.66;26.53;99355.63;4964080;28;20049;-72
2021/05/18 07:36:09;;;;;;;34.22;5.35;;;;;;;29.89;26.48;99354.91;4969303;28;20403;-75
2021/05/18 07:39:00;;;;;;;30.90;5.47;;;;;;;30.17;25.73;99345.50;4981338;28;20571;-71
2021/05/18 07:41:28;;;;;;;20.13;5.13;;;;;;;30.35;25.05;99350.88;4966842;28;20042;-73
2021/05/18 07:43:54;;;;;;;32.10;4.90;;;;;;;30.78;24.83;99351.59;4986677;28;20060;-71
2021/05/18 07:51:01;;;;;;;25.35;5.38;;;;;;;31.68;23.04;99352.28;4932582;29;20606;-74
2021/05/18 08:02:24;;;;;;;28.35;4.68;;;;;;;33.61;20.60;99357.69;4911293;29;20054;-72
2021/05/18 08:07:38;;;;;;;44.78;5.55;;;;;;;33.80;19.92;99361.81;4926491;29;20059;-70
2021/05/18 08:13:55;;;;;;;33.55;4.93;;;;;;;36.49;17.71;99369.97;4868713;29;20124;-75
2021/05/18 08:17:11;;;;;;;37.85;5.22;;;;;;;37.50;16.84;99369.91;4855152;29;20041;-73
2021/05/18 08:20:57;;;;;;;21.75;4.82;;;;;;;36.93;16.10;99316.16;4871041;29;20140;-75
2021/05/18 09:47:04;;;;;;;30.60;4.70;;;;;;;42.50;10.59;99327.41;4974454;28;20043;-69
2021/05/18 10:21:33;;;;;;;28.55;5.20;;;;;;;43.67;9.63;99318.31;4962142;28;20042;-69
2021/05/18 10:27:10;;;;;;;31.55;4.20;;;;;;;45.89;9.20;99318.13;4970425;28;20046;-67
2021/05/18 10:34:40;;;;;;;44.85;5.10;;;;;;;43.35;9.00;99308.78;4968937;28;20069;-68
2021/05/18 10:40:25;;;;;;;38.67;5.10;;;;;;;43.25;8.93;99289.91;4985044;28;20629;-64
2021/05/18 10:43:17;;;;;;;41.70;5.45;;;;;;;41.12;10.01;99284.66;4951849;28;20562;-65
2021/05/18 10:46:02;;;;;;;68.20;5.97;;;;;;;42.37;9.20;99285.00;4960179;28;20200;-61
2021/05/18 10:48:36;;;;;;;36.92;4.70;;;;;;;41.38;9.43;99295.34;4967055;28;20042;-68
2021/05/18 10:51:21;;;;;;;48.50;5.38;;;;;;;42.60;8.74;99288.59;4986631;28;20139;-62
2021/05/18 10:54:17;;;;;;;34.97;5.28;;;;;;;43.67;8.42;99292.31;4948190;28;20061;-66
2021/05/18 10:56:57;;;;;;;35.10;4.57;;;;;;;42.50;8.58;99270.75;4981720;28;20522;-62
2021/05/18 10:59:40;;;;;;;41.80;5.40;;;;;;;42.97;8.50;99278.75;4984328;28;20890;-63
2021/05/18 11:02:28;;;;;;;28.83;4.78;;;;;;;43.46;8.49;99283.59;4952522;28;20141;-63
2021/05/18 11:08:38;;;;;;;50.42;5.10;;;;;;;41.83;8.93;99252.81;4984196;28;20376;-63
2021/05/18 11:11:05;;;;;;;64.43;6.53;;;;;;;41.35;8.75;99267.97;4951255;28;20103;-65
2021/05/18 11:13:31;;;;;;;42.63;6.18;;;;;;;40.64;9.18;99286.63;4952671;28;20053;-68
2021/05/18 11:16:13;;;;;;;43.40;5.25;;;;;;;40.62;8.58;99228.44;4967348;28;20491;-67
2021/05/18 11:18:47;;;;;;;57.58;5.07;;;;;;;40.09;8.85;99277.38;4975065;28;20049;-69
2021/05/18 11:21:13;;;;;;;62.97;6.40;;;;;;;39.93;9.64;99248.28;4975003;28;20064;-68
2021/05/18 11:23:39;;;;;;;46.88;5.00;;;;;;;40.40;9.44;99266.13;4980102;28;20487;-69
2021/05/18 11:26:08;;;;;;;56.03;4.80;;;;;;;39.08;9.62;99255.66;4973196;28;20105;-67
2021/05/18 11:28:39;;;;;;;56.45;5.22;;;;;;;39.17;10.29;99254.31;4980631;28;20073;-69
2021/05/18 11:31:19;;;;;;;44.72;6.32;;;;;;;38.10;9.88;99242.28;4994624;28;20038;-68
2021/05/18 11:34:02;;;;;;;37.00;4.33;;;;;;;38.79;10.08;99243.22;4967189;28;20041;-67
2021/05/18 11:36:35;;;;;;;37.25;4.20;;;;;;;38.50;10.09;99254.94;4978205;28;20042;-65
2021/05/18 11:39:14;;;;;;;41.90;4.95;;;;;;;38.92;10.52;99243.16;4965079;28;20870;-68
2021/05/18 11:41:45;;;;;;;31.90;4.57;;;;;;;37.94;11.04;99223.34;4985470;28;20054;-74
2021/05/18 11:45:17;;;;;;;;;;;;;;;;;;;;;
2021/05/18 11:48:53;;;;;;;41.92;4.90;;;;;;;38.28;11.55;99219.41;4931859;28;20053;-69
2021/05/18 11:55:49;;;;;;;33.20;4.25;;;;;;;36.79;13.28;99216.56;4866717;29;20060;-66
2021/05/18 11:58:18;;;;;;;39.88;5.00;;;;;;;36.27;13.81;99205.38;4893096;29;20084;-65
2021/05/18 12:00:44;;;;;;;52.00;4.95;;;;;;;36.55;14.08;99214.38;4867241;29;20583;-73
2021/05/18 12:07:26;;;;;;;35.13;4.28;;;;;;;36.57;14.59;99198.44;4892297;29;20037;-68
2021/05/18 12:10:12;;;;;;;42.95;5.32;;;;;;;36.73;14.10;99199.97;4871177;29;20156;-67
2021/05/18 12:12:39;;;;;;;40.75;5.75;;;;;;;36.36;13.37;99187.56;4850424;29;20530;-67
2021/05/18 12:15:08;;;;;;;34.72;6.07;;;;;;;36.49;14.18;99195.03;4836815;29;20060;-71
2021/05/18 12:17:36;;;;;;;41.08;5.90;;;;;;;36.51;14.20;99199.28;4869461;29;20665;-67
2021/05/18 12:20:17;;;;;;;40.42;5.00;;;;;;;36.12;13.05;99184.47;4852147;29;20053;-68
2021/05/18 12:22:45;;;;;;;41.30;4.35;;;;;;;35.96;12.48;99191.22;4865594;29;20056;-66
2021/05/18 12:25:27;;;;;;;42.03;4.72;;;;;;;36.00;12.84;99192.53;4879252;29;20084;-67
2021/05/18 12:27:53;;;;;;;30.85;4.57;;;;;;;36.72;12.84;99201.91;4881462;29;20171;-67
2021/05/18 12:30:20;;;;;;;24.80;4.60;;;;;;;36.13;13.71;99191.69;4899949;29;20143;-67
2021/05/18 12:32:48;;;;;;;42.25;4.57;;;;;;;35.76;13.89;99186.66;4943275;28;20059;-66
2021/05/18 12:35:33;;;;;;;23.13;4.05;;;;;;;35.77;14.14;99175.41;4945707;28;20263;-66
2021/05/18 12:38:16;;;;;;;36.13;4.10;;;;;;;35.96;14.23;99185.72;4913596;29;20066;-65
2021/05/18 12:40:44;;;;;;;34.33;5.22;;;;;;;35.94;13.99;99189.69;4944273;29;20047;-67
2021/05/18 12:43:21;;;;;;;35.47;4.97;;;;;;;35.54;14.16;99185.88;4941659;29;20093;-67
2021/05/18 12:46:05;;;;;;;45.15;5.00;;;;;;;35.76;14.23;99183.91;4937001;28;20474;-69
2021/05/18 12:48:38;;;;;;;37.38;4.63;;;;;;;35.45;12.54;99188.97;4975972;28;20057;-66
2021/05/18 12:51:20;;;;;;;31.13;4.32;;;;;;;35.26;12.73;99184.16;4958089;28;20046;-66
2021/05/18 12:54:04;;;;;;;32.10;4.25;;;;;;;35.24;12.72;99178.81;4936845;28;20054;-68
2021/05/18 12:56:32;;;;;;;32.75;4.22;;;;;;;35.09;13.08;99150.53;4968093;28;20059;-67
2021/05/18 12:59:06;;;;;;;22.02;3.78;;;;;;;35.29;12.42;99165.34;4977230;28;20052;-67
2021/05/18 13:01:40;;;;;;;36.25;4.35;;;;;;;35.52;12.46;99179.69;4971179;28;20102;-66
2021/05/18 13:04:09;;;;;;;31.70;3.78;;;;;;;35.55;12.38;99171.00;4971244;28;20050;-66
2021/05/18 13:06:43;;;;;;;37.80;3.80;;;;;;;35.27;12.63;99164.66;4990579;28;20046;-65
2021/05/18 13:09:25;;;;;;;36.80;3.55;;;;;;;35.50;12.96;99168.00;4979080;28;20082;-66
2021/05/18 13:12:12;;;;;;;32.80;3.95;;;;;;;35.40;13.33;99159.25;4922763;28;20521;-64
2021/05/18 13:15:01;;;;;;;36.13;4.43;;;;;;;35.58;13.92;99165.09;4985576;28;20053;-66
2021/05/18 13:17:29;;;;;;;32.97;4.68;;;;;;;35.31;13.08;99145.84;4965658;28;20050;-67
2021/05/18 13:20:07;;;;;;;36.22;4.75;;;;;;;34.84;12.98;99141.00;4982950;28;20064;-68
2021/05/18 13:22:37;;;;;;;37.42;4.72;;;;;;;35.13;13.38;99162.00;4980241;28;20138;-65
2021/05/18 13:28:11;;;;;;;36.97;4.78;;;;;;;35.27;13.52;99139.00;4987302;28;20101;-66
2021/05/18 13:30:41;;;;;;;43.75;5.07;;;;;;;34.75;13.46;99147.66;4983007;28;20054;-68
2021/05/18 13:33:08;;;;;;;39.35;5.18;;;;;;;34.95;13.49;99158.88;4975400;28;20053;-66
2021/05/18 13:35:34;;;;;;;30.45;5.72;;;;;;;35.06;13.55;99156.44;4980263;28;20173;-67
2021/05/18 13:38:00;;;;;;;26.35;4.60;;;;;;;34.59;13.59;99155.34;4983548;28;20054;-67
2021/05/18 13:40:28;;;;;;;27.35;4.80;;;;;;;34.53;13.13;99120.34;4984190;28;20486;-67
2021/05/18 13:42:55;;;;;;;37.70;4.97;;;;;;;34.26;13.92;99126.59;4966144;28;20048;-64
2021/05/18 13:45:25;;;;;;;30.08;5.13;;;;;;;34.44;13.92;99132.56;4980393;28;20511;-63
2021/05/18 13:47:55;;;;;;;29.45;4.70;;;;;;;34.33;14.04;99155.94;4984620;28;20089;-65
2021/05/18 13:50:31;;;;;;;30.15;5.00;;;;;;;34.39;13.95;99132.28;4967976;28;20046;-66
2021/05/18 13:52:58;;;;;;;31.23;5.53;;;;;;;34.32;14.24;99137.72;4980437;28;20069;-64
2021/05/18 13:55:25;;;;;;;26.30;4.97;;;;;;;34.34;13.77;99141.16;4985976;28;20046;-65
2021/05/18 13:57:51;;;;;;;34.55;4.40;;;;;;;34.28;13.98;99141.88;4984918;28;20525;-64
2021/05/18 14:00:18;;;;;;;30.30;5.15;;;;;;;34.07;13.97;99141.00;4983487;28;20134;-66
2021/05/18 14:02:46;;;;;;;30.10;4.90;;;;;;;34.28;14.32;99141.06;4968137;28;20101;-64
2021/05/18 14:05:17;;;;;;;30.27;4.72;;;;;;;34.08;14.53;99134.47;4982744;28;20141;-64
2021/05/18 14:10:47;;;;;;;30.60;4.72;;;;;;;33.99;14.52;99150.25;4969793;28;20683;-65
2021/05/18 14:13:14;;;;;;;36.45;4.70;;;;;;;33.76;14.06;99115.63;4982866;28;20046;-66
2021/05/18 14:15:42;;;;;;;29.13;5.10;;;;;;;33.97;14.45;99133.06;4968542;28;20048;-65
2021/05/18 14:18:16;;;;;;;33.75;6.00;;;;;;;33.66;14.37;99139.84;4975508;28;20038;-70
2021/05/18 14:20:55;;;;;;;38.80;5.35;;;;;;;33.65;15.19;99135.41;4987765;28;20057;-64
2021/05/18 14:23:26;;;;;;;30.35;5.20;;;;;;;33.67;14.98;99119.53;4969054;28;20072;-73
2021/05/18 14:25:54;;;;;;;37.53;5.72;;;;;;;33.71;14.94;99131.84;4968927;28;20058;-66
2021/05/18 14:28:21;;;;;;;41.75;5.78;;;;;;;33.25;14.89;99114.69;4985251;28;20042;-70
2021/05/18 14:30:50;;;;;;;42.28;5.22;;;;;;;33.33;15.09;99125.63;4980136;28;20065;-64
2021/05/18 14:33:17;;;;;;;44.42;4.55;;;;;;;33.19;15.27;99124.56;4982276;28;20042;-61
2021/05/18 14:35:53;;;;;;;48.35;5.38;;;;;;;32.91;15.25;99108.91;4966709;28;20068;-66
2021/05/18 14:38:23;;;;;;;29.50;4.68;;;;;;;33.13;15.04;99122.59;4969504;28;20066;-64
2021/05/18 14:46:36;;;;;;;32.58;4.35;;;;;;;32.79;14.87;99113.13;4981789;28;20050;-66
2021/05/18 14:56:46;;;;;;;29.52;4.57;;;;;;;32.24;15.25;99118.03;5104869;28;20044;-72
2021/05/18 14:59:13;;;;;;;27.98;5.13;;;;;;;32.03;15.36;99104.97;5078784;28;20045;-74
2021/05/18 15:01:39;;;;;;;38.70;5.20;;;;;;;32.05;15.73;99104.81;5088481;28;20194;-72
2021/05/18 15:04:06;;;;;;;34.55;5.07;;;;;;;32.06;16.00;99115.59;5091912;28;20052;-74
2021/05/18 15:06:32;;;;;;;40.03;5.95;;;;;;;31.95;16.10;99107.78;5089041;28;20047;-73
2021/05/18 15:08:58;;;;;;;31.70;5.35;;;;;;;31.73;16.07;99085.78;5063412;28;20123;-69
2021/05/18 15:11:25;;;;;;;27.40;4.22;;;;;;;31.67;16.27;99087.34;5091700;28;20044;-74
2021/05/18 15:13:51;;;;;;;44.35;5.05;;;;;;;31.73;16.24;99103.09;5083300;28;20630;-73
2021/05/18 15:16:18;;;;;;;22.55;4.38;;;;;;;31.58;16.13;99098.53;5076101;28;20528;-71
2021/05/18 15:18:46;;;;;;;29.63;4.60;;;;;;;31.67;16.61;99097.47;5086696;28;20535;-75
2021/05/18 15:21:13;;;;;;;29.50;5.18;;;;;;;31.58;16.47;99093.06;5089428;28;20040;-76
2021/05/18 15:23:40;;;;;;;43.33;5.43;;;;;;;31.51;16.37;99090.19;5080955;28;20177;-68
2021/05/18 15:26:06;;;;;;;31.58;4.78;;;;;;;31.41;16.43;99089.56;5070472;28;20040;-70
2021/05/18 15:28:32;;;;;;;31.95;5.05;;;;;;;31.41;16.64;99085.97;5067748;28;20144;-69
2021/05/18 15:30:59;;;;;;;33.05;4.85;;;;;;;31.39;16.91;99085.25;5086788;28;20198;-69
2021/05/18 15:33:28;;;;;;;36.42;4.95;;;;;;;31.33;16.72;99089.56;5089939;28;20096;-69
2021/05/18 15:35:55;;;;;;;36.63;4.68;;;;;;;31.17;16.75;99075.06;5085541;28;20040;-77
2021/05/18 15:38:21;;;;;;;40.15;4.50;;;;;;;31.16;16.72;99076.94;5060861;28;20048;-70
2021/05/18 15:40:47;;;;;;;29.13;4.25;;;;;;;31.05;16.94;99069.09;5084679;28;20031;-70
2021/05/18 15:44:07;;;;;;;32.17;5.30;;;;;;;30.82;17.06;99035.31;5057234;28;20045;-68
2021/05/18 15:46:33;;;;;;;33.00;4.40;;;;;;;30.81;17.18;99040.97;5064557;28;20045;-68
2021/05/18 15:48:59;;;;;;;29.08;4.63;;;;;;;30.88;17.29;99053.75;5051110;28;20047;-68
2021/05/18 15:51:26;;;;;;;27.02;4.95;;;;;;;30.87;17.52;99045.72;5048727;28;20188;-68
2021/05/18 15:53:52;;;;;;;30.27;4.47;;;;;;;30.79;17.53;99051.22;5055400;28;20053;-67
2021/05/18 15:56:19;;;;;;;34.80;5.68;;;;;;;30.70;16.94;99039.44;5066536;28;20513;-67
2021/05/18 15:58:45;;;;;;;33.47;5.63;;;;;;;30.65;17.42;99047.28;5048755;28;20139;-70
2021/05/18 16:01:11;;;;;;;40.25;5.03;;;;;;;30.55;16.79;99038.41;5042486;28;20291;-68
2021/05/18 16:03:37;;;;;;;32.72;4.60;;;;;;;30.49;17.13;99028.16;5046709;28;20053;-71
2021/05/18 16:06:04;;;;;;;29.27;5.03;;;;;;;30.40;17.25;99031.94;5015063;28;20041;-71
2021/05/18 16:11:06;;;;;;;33.03;4.47;;;;;;;30.23;17.47;99000.16;5028850;28;20049;-72
2021/05/18 16:18:04;;;;;;;34.05;5.15;;;;;;;30.10;17.58;99016.19;5010696;28;20048;-70
2021/05/18 16:20:30;;;;;;;28.75;6.05;;;;;;;30.03;17.94;99011.59;5012708;28;20123;-68
2021/05/18 16:22:57;;;;;;;36.30;5.00;;;;;;;29.96;17.92;99013.28;4995458;28;20584;-70
2021/05/18 16:25:22;;;;;;;26.25;4.85;;;;;;;29.85;18.06;99002.72;4968732;28;20077;-79
2021/05/18 16:27:55;;;;;;;33.95;5.93;;;;;;;29.78;18.56;99005.25;4995419;28;20053;-72
2021/05/18 16:30:21;;;;;;;29.50;5.30;;;;;;;29.72;18.15;99002.34;5014191;28;20103;-72
2021/05/18 16:32:48;;;;;;;28.20;4.93;;;;;;;29.58;18.73;99007.47;4982261;28;20041;-76
2021/05/18 16:35:14;;;;;;;31.17;5.25;;;;;;;29.48;18.78;99001.28;4986214;28;20037;-73
2021/05/18 16:37:40;;;;;;;21.95;5.88;;;;;;;29.39;18.89;99005.00;5000997;28;20096;-72
2021/05/18 16:40:09;;;;;;;30.08;6.30;;;;;;;29.30;18.79;99005.13;5003437;28;20195;-74
2021/05/18 16:42:37;;;;;;;36.95;7.35;;;;;;;29.19;19.01;98997.28;5032672;28;20552;-79
2021/05/18 16:45:07;;;;;;;34.75;5.85;;;;;;;28.98;19.54;98969.50;5065656;28;20504;-69
2021/05/18 16:47:34;;;;;;;55.38;6.63;;;;;;;28.94;19.53;98981.78;5067499;28;20093;-73
2021/05/18 16:50:00;;;;;;;35.15;5.40;;;;;;;28.92;19.70;98983.84;5066568;28;20047;-74
2021/05/18 16:52:27;;;;;;;36.40;5.68;;;;;;;28.73;19.95;98967.72;5031136;28;20361;-72
2021/05/18 16:54:53;;;;;;;28.23;5.47;;;;;;;28.71;19.69;98976.06;5064015;28;20515;-73
2021/05/18 16:57:19;;;;;;;28.95;5.50;;;;;;;28.63;20.19;98989.66;5065383;28;20056;-74
2021/05/18 16:59:45;;;;;;;50.65;6.95;;;;;;;28.55;20.28;98983.28;5063658;28;20044;-73
2021/05/18 17:02:11;;;;;;;35.20;5.68;;;;;;;28.44;20.30;98975.41;5049078;28;20049;-72
2021/05/18 17:08:05;;;;;;;30.50;5.25;;;;;;;28.20;20.99;98978.78;4999808;28;20082;-76
2021/05/18 17:11:01;;;;;;;35.33;5.43;;;;;;;28.07;21.32;98964.75;5008820;28;20129;-72